createdAt,value
2022-09-26T00:04:32.554Z,70.90
2022-09-26T00:09:35.088Z,71.11
2022-09-26T00:14:38.586Z,71.05
2022-09-26T00:19:40.454Z,71.06
2022-09-26T00:24:42.311Z,71.17
2022-09-26T00:29:44.347Z,71.33
2022-09-26T00:34:46.246Z,71.47
2022-09-26T00:39:48.041Z,71.38
2022-09-26T00:44:54.898Z,71.62
2022-09-26T00:50:05.118Z,71.70
2022-09-26T00:55:11.899Z,71.79
2022-09-26T01:00:15.798Z,71.83
2022-09-26T01:05:22.253Z,71.96
2022-09-26T01:10:24.671Z,72.04
2022-09-26T01:15:26.480Z,72.08
2022-09-26T01:20:39.081Z,72.01
2022-09-26T01:26:17.676Z,72.44
2022-09-26T01:31:42.065Z,72.21
2022-09-26T01:37:14.549Z,72.14
2022-09-26T01:42:37.728Z,72.50
2022-09-26T01:48:02.485Z,72.70
2022-09-26T01:53:27.701Z,72.65
2022-09-26T01:58:51.542Z,72.72
2022-09-26T02:03:59.011Z,72.86
2022-09-26T02:09:14.272Z,72.86
2022-09-26T02:14:28.970Z,72.91
2022-09-26T02:20:06.754Z,73.29
2022-09-26T02:25:09.588Z,73.10
2022-09-26T02:30:13.824Z,73.21
2022-09-26T02:35:35.105Z,73.27
2022-09-26T02:40:53.316Z,73.48
2022-09-26T02:46:15.621Z,73.53
2022-09-26T02:51:44.655Z,73.66
2022-09-26T02:57:22.559Z,73.85
2022-09-26T03:03:03.988Z,73.56
2022-09-26T03:08:12.579Z,73.39
2022-09-26T03:13:17.096Z,73.44
2022-09-26T03:18:30.095Z,73.49
2022-09-26T03:23:32.382Z,73.47
2022-09-26T03:28:39.376Z,72.96
2022-09-26T03:33:41.271Z,73.03
2022-09-26T03:38:44.271Z,73.15
2022-09-26T03:44:09.016Z,73.09
2022-09-26T03:49:29.524Z,73.03
2022-09-26T03:54:31.427Z,73.05
2022-09-26T03:59:33.553Z,72.83
2022-09-26T04:04:35.937Z,72.84
2022-09-26T04:09:37.904Z,72.82
2022-09-26T04:14:40.397Z,72.99
2022-09-26T04:19:42.401Z,73.25
2022-09-26T04:25:12.156Z,73.14
2022-09-26T04:31:20.931Z,73.24
2022-09-26T04:36:28.529Z,73.15
2022-09-26T04:41:31.587Z,73.12
2022-09-26T04:46:35.665Z,73.15
2022-09-26T04:51:37.585Z,73.28
2022-09-26T04:56:39.826Z,73.37
2022-09-26T05:01:43.726Z,73.35
2022-09-26T05:06:57.982Z,73.26
2022-09-26T05:12:04.398Z,73.42
2022-09-26T05:17:10.272Z,73.60
2022-09-26T05:22:13.013Z,73.64
2022-09-26T05:27:15.325Z,73.60
2022-09-26T05:32:20.846Z,73.59
2022-09-26T05:37:32.882Z,73.71
2022-09-26T05:42:35.587Z,73.74
2022-09-26T05:47:39.530Z,73.77
2022-09-26T05:52:41.727Z,74.00
2022-09-26T05:57:53.103Z,73.78
2022-09-26T06:02:58.593Z,74.03
2022-09-26T06:08:12.587Z,74.00
2022-09-26T06:13:21.792Z,74.29
2022-09-26T06:18:28.022Z,74.04
2022-09-26T06:23:31.928Z,74.06
2022-09-26T06:28:39.216Z,74.19
2022-09-26T06:33:42.338Z,74.23
2022-09-26T06:39:01.873Z,73.94
2022-09-26T06:51:02.218Z,74.40
2022-09-26T06:56:06.179Z,74.17
2022-09-26T07:01:08.592Z,74.09
2022-09-26T07:06:31.347Z,74.31
2022-09-26T07:11:56.267Z,74.27
2022-09-26T07:16:55.917Z,74.65
2022-09-26T07:22:09.953Z,74.45
2022-09-26T07:27:27.133Z,74.56
2022-09-26T07:32:31.496Z,74.74
2022-09-26T07:37:51.962Z,74.75
2022-09-26T07:43:18.589Z,74.79
2022-09-26T07:48:40.078Z,74.84
2022-09-26T07:54:00.685Z,74.94
2022-09-26T07:59:12.710Z,74.95
2022-09-26T08:04:43.492Z,75.03
2022-09-26T08:09:45.626Z,75.05
2022-09-26T08:15:26.104Z,74.88
2022-09-26T08:20:38.364Z,75.11
2022-09-26T08:25:41.313Z,75.16
2022-09-26T08:31:08.538Z,75.24
2022-09-26T08:36:13.946Z,75.07
2022-09-26T08:42:11.887Z,75.16
2022-09-26T08:47:52.137Z,75.18
2022-09-26T08:53:16.149Z,74.97
2022-09-26T08:58:44.820Z,75.00
2022-09-26T09:04:13.463Z,74.81
2022-09-26T09:09:17.174Z,74.88
2022-09-26T09:15:24.185Z,74.76
2022-09-26T09:20:57.503Z,74.16
2022-09-26T09:32:01.943Z,73.76
2022-09-26T09:37:53.985Z,73.29
2022-09-26T09:43:46.002Z,72.90
2022-09-26T09:48:48.381Z,72.68
2022-09-26T09:53:50.367Z,72.38
2022-09-26T09:59:03.769Z,72.40
2022-09-26T10:04:41.683Z,71.90
2022-09-26T10:09:44.241Z,71.90
2022-09-26T10:15:09.438Z,71.51
2022-09-26T10:20:40.130Z,70.85
2022-09-26T10:25:47.683Z,70.59
2022-09-26T10:30:50.787Z,70.25
2022-09-26T10:36:04.982Z,69.92
2022-09-26T10:41:23.149Z,69.81
2022-09-26T10:46:26.211Z,69.75
2022-09-26T10:52:31.890Z,69.69
2022-09-26T10:57:41.023Z,68.88
2022-09-26T11:02:47.218Z,68.24
2022-09-26T11:07:52.458Z,67.68
2022-09-26T11:13:24.086Z,66.07
2022-09-26T11:18:42.644Z,65.72
2022-09-26T11:24:03.663Z,65.61
2022-09-26T11:29:06.105Z,65.55
2022-09-26T11:34:22.270Z,64.96
2022-09-26T11:39:50.565Z,65.03
2022-09-26T11:45:31.020Z,64.94
2022-09-26T11:51:23.413Z,64.60
2022-09-26T11:56:47.393Z,64.17
2022-09-26T12:02:04.334Z,64.34
2022-09-26T12:07:25.368Z,63.70
2022-09-26T12:12:42.963Z,63.64
2022-09-26T12:17:47.945Z,64.17
2022-09-26T12:22:49.899Z,63.87
2022-09-26T12:28:16.901Z,62.66
2022-09-26T12:33:52.737Z,61.43
2022-09-26T12:39:31.560Z,60.62
2022-09-26T12:45:26.726Z,59.61
2022-09-26T12:50:42.863Z,59.73
2022-09-26T12:56:15.562Z,60.01
2022-09-26T13:01:37.572Z,60.08
2022-09-26T13:07:17.248Z,59.94
2022-09-26T13:12:30.542Z,60.12
2022-09-26T13:17:46.300Z,59.57
2022-09-26T13:22:48.226Z,59.54
2022-09-26T13:28:05.403Z,58.86
2022-09-26T13:33:18.599Z,59.20
2022-09-26T13:38:42.808Z,59.51
2022-09-26T13:43:56.666Z,59.06
2022-09-26T13:49:26.564Z,58.52
2022-09-26T13:54:44.341Z,58.37
2022-09-26T13:59:51.784Z,58.57
2022-09-26T14:05:02.831Z,58.43
2022-09-26T14:10:17.992Z,58.39
2022-09-26T14:15:27.164Z,58.60
2022-09-26T14:20:34.336Z,58.24
2022-09-26T14:25:44.967Z,58.12
2022-09-26T14:31:25.105Z,57.84
2022-09-26T14:36:33.493Z,58.33
2022-09-26T14:41:36.654Z,57.89
2022-09-26T14:46:41.545Z,57.72
2022-09-26T14:51:58.969Z,57.50
2022-09-26T14:57:08.207Z,57.57
2022-09-26T15:02:16.034Z,57.64
2022-09-26T15:07:22.506Z,57.99
2022-09-26T15:12:41.507Z,57.67
2022-09-26T15:17:50.606Z,58.07
2022-09-26T15:22:58.568Z,58.09
2022-09-26T15:28:01.909Z,58.31
2022-09-26T15:33:05.745Z,58.71
2022-09-26T15:38:12.940Z,58.88
2022-09-26T15:43:22.406Z,58.93
2022-09-26T15:48:28.550Z,59.05
2022-09-26T15:53:47.228Z,59.20
2022-09-26T15:58:55.792Z,59.50
2022-09-26T16:04:02.477Z,59.59
2022-09-26T16:09:16.317Z,59.84
2022-09-26T16:14:26.918Z,59.79
2022-09-26T16:19:32.714Z,59.66
2022-09-26T16:24:34.862Z,59.51
2022-09-26T16:29:36.903Z,59.10
2022-09-26T16:34:39.194Z,58.80
2022-09-26T16:39:42.355Z,58.76
2022-09-26T16:44:54.457Z,58.74
2022-09-26T16:51:01.570Z,58.68
2022-09-26T16:56:06.497Z,58.96
2022-09-26T17:01:55.590Z,58.73
2022-09-26T17:07:07.543Z,59.01
2022-09-26T17:12:21.602Z,58.77
2022-09-26T17:17:27.665Z,58.79
2022-09-26T17:22:29.633Z,58.98
2022-09-26T17:27:34.398Z,59.01
2022-09-26T17:32:38.264Z,59.08
2022-09-26T17:37:41.167Z,59.16
2022-09-26T17:42:42.972Z,59.26
2022-09-26T17:47:44.937Z,59.30
2022-09-26T17:52:47.498Z,59.51
2022-09-26T17:57:49.358Z,59.30
2022-09-26T18:03:00.510Z,59.62
2022-09-26T18:08:22.557Z,59.62
2022-09-26T18:13:28.008Z,59.73
2022-09-26T18:18:32.383Z,59.70
2022-09-26T18:24:02.404Z,59.70
2022-09-26T18:29:08.208Z,59.72
2022-09-26T18:34:16.450Z,59.70
2022-09-26T18:50:58.783Z,59.82
2022-09-26T18:56:19.167Z,59.71
2022-09-26T19:01:38.408Z,59.74
2022-09-26T19:06:42.987Z,59.91
2022-09-26T19:11:45.377Z,59.89
2022-09-26T19:16:49.485Z,60.00
2022-09-26T19:22:00.143Z,59.94
2022-09-26T19:27:25.204Z,60.06
2022-09-26T19:32:35.386Z,59.89
2022-09-26T19:37:37.236Z,59.98
2022-09-26T19:42:39.339Z,60.06
2022-09-26T19:47:47.686Z,60.13
2022-09-26T19:52:52.054Z,60.10
2022-09-26T19:57:56.597Z,60.10
2022-09-26T20:02:58.775Z,60.24
2022-09-26T20:08:01.067Z,60.15
2022-09-26T20:13:02.913Z,60.26
2022-09-26T20:29:28.903Z,60.43
2022-09-26T20:34:30.709Z,60.43
2022-09-26T20:39:32.632Z,60.51
2022-09-26T20:44:36.549Z,60.91
2022-09-26T20:49:46.166Z,60.89
2022-09-26T20:54:48.603Z,61.07
2022-09-26T20:59:51.654Z,61.09
2022-09-26T21:04:54.528Z,61.29
2022-09-26T21:09:59.533Z,61.49
2022-09-26T21:15:03.348Z,61.36
2022-09-26T21:20:05.595Z,61.30
2022-09-26T21:25:29.091Z,61.19
2022-09-26T21:30:31.064Z,61.10
2022-09-26T21:35:32.964Z,61.12
2022-09-26T21:40:47.079Z,61.13
2022-09-26T21:45:49.077Z,61.18
2022-09-26T21:50:58.196Z,61.12
2022-09-26T21:56:07.749Z,61.14
2022-09-26T22:01:09.862Z,61.04
2022-09-26T22:06:11.902Z,60.89
2022-09-26T22:11:14.386Z,61.15
2022-09-26T22:16:16.698Z,60.99
2022-09-26T22:21:19.222Z,60.99
2022-09-26T22:26:21.347Z,61.19
2022-09-26T22:31:23.394Z,61.02
2022-09-26T22:36:26.526Z,61.17
2022-09-26T22:41:28.574Z,61.17
2022-09-26T22:46:33.830Z,61.16
2022-09-26T22:51:35.923Z,61.25
2022-09-26T22:56:38.549Z,61.39
2022-09-26T23:01:40.512Z,61.24
2022-09-26T23:06:42.527Z,61.38
2022-09-26T23:11:44.404Z,61.28
2022-09-26T23:16:46.248Z,61.18
2022-09-26T23:21:48.161Z,61.13
2022-09-26T23:26:50.424Z,61.29
2022-09-26T23:32:16.413Z,61.23
2022-09-26T23:37:18.262Z,61.09
2022-09-26T23:42:20.535Z,61.11
2022-09-26T23:47:22.345Z,60.99
2022-09-26T23:52:24.203Z,61.00
2022-09-26T23:57:26.121Z,60.87
